MMGM 082250Z 00000KT 10SM BKN040 OVC200 24/17 A2991 RMK 8/5//= 082251

MMGM 082149Z 00000KT 10SM SCT030 OVC050 23/14 A2991 RMK 8/5//= 082150

MMGM 082040Z 02006KT 10SM BKN030 OVC050 24/14 A2992 RMK 8/5//= 082041

MMGM 081940Z 00000KT 10SM BKN030 OVC050 23/13 A2994 RMK 8/5//= 081942

MMGM 081840Z 01006KT 10SM SCT030 OVC050 22/12 A2997 RMK 8/5//= 081841

MMGM 081740Z 00000KT 10SM SCT020 OVC050 20/13 A2997 RMK 8/5//= 081740

MMGM 081640Z 00000KT 10SM BKN020 OVC050 17/11 A2997 RMK 8/5//= 081641

MMGM 081540Z 00000KT 10SM SCT020 OVC050 16/11 A2997 RMK 8/5//= 081541

MMGM 081440Z 00000KT 10SM SCT020 OVC050 16/10 A2993 RMK 8/5//= 081442

MMGM 081412Z RTD 00000KT 10SM SCT020 OVC100 16/10 A2993 RMK 8/55/ RTS= 081414

MMGM 080142Z 00000KT 5SM SCT200 22/15 A2990 RMK 8/002= 080143

MMGM 080051Z 00000KT 10SM SCT200 24/14 A2989 RMK 8/002= 080051

MMGM 072344Z 27010KT 10SM BKN200 25/16 A2988 RMK 8/002= 072345

MMGM 072243Z 23007KT 10SM SCT200 27/09 A2988 RMK 8/002= 072244

MMGM 072142Z 23012KT 10SM SCT200 26/11 A2990 RMK 8/001= 072143

MMGM 072050Z 23010KT 10SM FEW200 25/18 A2991 RMK 8/001= 072051

MMGM 071949Z 00000KT 10SM SKC 25/17 A2992= 071950

MMGM 071840Z 18006KT 10SM SKC 25/15 A2995= 071840

MMGM 071740Z 00000KT 10SM SKC 23/15 A2996= 071740

MMGM 071641Z 00000KT 10SM SKC 19/13 A2996= 071641

MMGM 071542Z 00000KT 10SM SKC 15/11 A2994= 071543

MMGM 071440Z 00000KT 10SM SKC 12/08 A2991= 071440

MMGM 071358Z RTD 00000KT 10SM SKC 13/09 A2992 RMK RTS= 071358

MMGM 070147Z 00000KT 5SM SKC 21/18 A2994= 070147

MMGM 070046Z 25007KT 10SM SKC 22/18 A2993= 070047

MMGM 062343Z 23009KT 10SM SKC 24/17 A2993= 062343

MMGM 062257Z RTD 22011KT 10SM SKC 24/16 A2993= 062258

MMGM 062140Z 23010KT 10SM SKC 25/16 A2994= 062141

MMGM 062044Z 23015KT 10SM SKC 25/14 A2993= 062045

MMGM 061946Z 20006KT 10SM SKC 27/12 A2995= 061947

MMGM 061840Z 00000KT 10SM SKC 26/12 A2999= 061841

MMGM 061746Z 00000KT 10SM SKC 24/12 A3002= 061746

MMGM 061641Z 00000KT 10SM SKC 20/11 A3002= 061642

MMGM 061540Z 00000KT 10SM SKC 15/11 A3001= 061541

MMGM 061440Z 00000KT 10SM SKC 13/09 A2999= 061441

MMGM 061356Z 00000KT 10SM SKC 14/09 A2998 RMK RTS= 061356